createdAt,value
2022-11-24T00:00:12.817Z,21.32
2022-11-24T00:00:43.243Z,21.31
2022-11-24T00:01:13.697Z,21.31
2022-11-24T00:01:44.112Z,21.29
2022-11-24T00:02:14.617Z,21.29
2022-11-24T00:02:45.157Z,21.31
2022-11-24T00:03:15.726Z,21.29
2022-11-24T00:03:46.125Z,21.31
2022-11-24T00:04:16.545Z,21.31
2022-11-24T00:04:46.966Z,21.31
2022-11-24T00:05:17.388Z,21.31
2022-11-24T00:05:47.809Z,21.31
2022-11-24T00:06:18.248Z,21.29
2022-11-24T00:06:48.669Z,21.29
2022-11-24T00:07:19.165Z,21.31
2022-11-24T00:07:49.657Z,21.29
2022-11-24T00:08:20.138Z,21.29
2022-11-24T00:08:50.562Z,21.29
2022-11-24T00:09:20.985Z,21.29
2022-11-24T00:09:51.405Z,21.28
2022-11-24T00:10:21.836Z,21.28
2022-11-24T00:10:52.279Z,21.28
2022-11-24T00:11:22.702Z,21.28
2022-11-24T00:11:53.126Z,21.29
2022-11-24T00:12:23.557Z,21.28
2022-11-24T00:12:53.989Z,21.28
2022-11-24T00:13:24.409Z,21.29
2022-11-24T00:13:54.837Z,21.29
2022-11-24T00:14:25.255Z,21.29
2022-11-24T00:14:55.677Z,21.29
2022-11-24T00:15:26.100Z,21.31
2022-11-24T00:15:56.536Z,21.28
2022-11-24T00:16:27.037Z,21.31
2022-11-24T00:16:57.469Z,21.31
2022-11-24T00:17:27.877Z,21.29
2022-11-24T00:17:58.298Z,21.29
2022-11-24T00:18:28.727Z,21.28
2022-11-24T00:18:59.177Z,21.28
2022-11-24T00:19:29.570Z,21.28
2022-11-24T00:19:59.992Z,21.29
2022-11-24T00:20:30.414Z,21.28
2022-11-24T00:21:00.832Z,21.28
2022-11-24T00:21:31.278Z,21.28
2022-11-24T00:22:01.707Z,21.29
2022-11-24T00:22:32.134Z,21.29
2022-11-24T00:23:02.567Z,21.28
2022-11-24T00:23:32.994Z,21.28
2022-11-24T00:24:03.413Z,21.28
2022-11-24T00:24:34.230Z,21.29
2022-11-24T00:25:04.794Z,21.28
2022-11-24T00:25:35.214Z,21.28
2022-11-24T00:26:05.658Z,21.28
2022-11-24T00:26:36.097Z,21.29
2022-11-24T00:27:06.509Z,21.29
2022-11-24T00:27:36.932Z,21.28
2022-11-24T00:28:07.353Z,21.29
2022-11-24T00:28:37.784Z,21.29
2022-11-24T00:29:08.206Z,21.28
2022-11-24T00:29:38.633Z,21.28
2022-11-24T00:30:09.070Z,21.29
2022-11-24T00:30:39.512Z,21.28
2022-11-24T00:31:15.372Z,21.29
2022-11-24T00:31:45.331Z,21.29
2022-11-24T00:32:15.754Z,21.31
2022-11-24T00:32:46.175Z,21.29
2022-11-24T00:33:16.597Z,21.31
2022-11-24T00:33:47.027Z,21.29
2022-11-24T00:34:17.450Z,21.31
2022-11-24T00:34:47.873Z,21.29
2022-11-24T00:35:18.300Z,21.29
2022-11-24T00:35:48.721Z,21.31
2022-11-24T00:36:19.142Z,21.29
2022-11-24T00:36:49.586Z,21.29
2022-11-24T00:37:20.008Z,21.31
2022-11-24T00:37:50.432Z,21.29
2022-11-24T00:38:20.858Z,21.32
2022-11-24T00:38:51.281Z,21.31
2022-11-24T00:39:21.712Z,21.28
2022-11-24T00:39:52.131Z,21.29
2022-11-24T00:40:22.553Z,21.28
2022-11-24T00:40:52.980Z,21.28
2022-11-24T00:41:23.415Z,21.29
2022-11-24T00:41:53.836Z,21.29
2022-11-24T00:42:24.260Z,21.29
2022-11-24T00:42:54.684Z,21.29
2022-11-24T00:43:25.109Z,21.29
2022-11-24T00:43:55.534Z,21.29
2022-11-24T00:44:25.958Z,21.28
2022-11-24T00:44:56.381Z,21.28
2022-11-24T00:45:26.802Z,21.29
2022-11-24T00:45:57.331Z,21.31
2022-11-24T00:46:28.066Z,21.32
2022-11-24T00:46:58.673Z,21.31
2022-11-24T00:47:29.145Z,21.29
2022-11-24T00:47:59.568Z,21.29
2022-11-24T00:48:29.989Z,21.31
2022-11-24T00:49:00.516Z,21.31
2022-11-24T00:49:30.907Z,21.31
2022-11-24T00:50:01.328Z,21.31
2022-11-24T00:50:31.769Z,21.31
2022-11-24T00:51:02.194Z,21.31
2022-11-24T00:51:32.618Z,21.31
2022-11-24T00:52:03.297Z,21.29
2022-11-24T00:52:33.720Z,21.31
2022-11-24T00:53:04.149Z,21.29
2022-11-24T00:53:34.570Z,21.29
2022-11-24T00:54:04.984Z,21.29
2022-11-24T00:54:35.609Z,21.28
2022-11-24T00:55:06.135Z,21.31
2022-11-24T00:55:36.552Z,21.31
2022-11-24T00:56:06.974Z,21.29
2022-11-24T00:56:37.416Z,21.31
2022-11-24T00:57:07.921Z,21.31
2022-11-24T00:57:38.338Z,21.31
2022-11-24T00:58:08.762Z,21.31
2022-11-24T00:58:39.183Z,21.31
2022-11-24T00:59:09.627Z,21.32
2022-11-24T00:59:40.048Z,21.32
2022-11-24T01:00:10.472Z,21.31
2022-11-24T01:00:40.893Z,21.32
2022-11-24T01:01:11.397Z,21.31
2022-11-24T01:01:42.057Z,21.32
2022-11-24T01:02:12.848Z,21.31
2022-11-24T01:02:43.312Z,21.31
2022-11-24T01:03:13.690Z,21.31
2022-11-24T01:03:44.118Z,21.29
2022-11-24T01:04:14.536Z,21.29
2022-11-24T01:04:44.960Z,21.31
2022-11-24T01:05:15.392Z,21.29
2022-11-24T01:05:45.815Z,21.29
2022-11-24T01:06:16.239Z,21.31
2022-11-24T01:06:46.674Z,21.29
2022-11-24T01:07:17.165Z,21.31
2022-11-24T01:07:47.634Z,21.31
2022-11-24T01:08:18.020Z,21.31
2022-11-24T01:08:48.448Z,21.31
2022-11-24T01:09:18.863Z,21.29
2022-11-24T01:09:49.286Z,21.29
2022-11-24T01:10:19.706Z,21.31
2022-11-24T01:10:50.148Z,21.31
2022-11-24T01:11:20.562Z,21.29
2022-11-24T01:11:51.009Z,21.31
2022-11-24T01:12:21.508Z,21.31
2022-11-24T01:12:51.930Z,21.28
2022-11-24T01:13:22.352Z,21.29
2022-11-24T01:13:52.773Z,21.29
2022-11-24T01:14:23.233Z,21.31
2022-11-24T01:14:53.624Z,21.29
2022-11-24T01:15:24.060Z,21.31
2022-11-24T01:15:54.559Z,21.31
2022-11-24T01:16:25.072Z,21.29
2022-11-24T01:16:55.485Z,21.31
2022-11-24T01:17:26.016Z,21.31
2022-11-24T01:17:56.445Z,21.31
2022-11-24T01:18:26.857Z,21.29
2022-11-24T01:18:57.279Z,21.29
2022-11-24T01:19:27.712Z,21.29
2022-11-24T01:19:58.139Z,21.31
2022-11-24T01:20:28.561Z,21.29
2022-11-24T01:20:58.982Z,21.31
2022-11-24T01:21:29.404Z,21.31
2022-11-24T01:21:59.838Z,21.31
2022-11-24T01:22:30.273Z,21.31
2022-11-24T01:23:00.693Z,21.29
2022-11-24T01:23:31.116Z,21.31
2022-11-24T01:24:01.542Z,21.31
2022-11-24T01:24:32.293Z,21.32
2022-11-24T01:25:02.841Z,21.34
2022-11-24T01:25:33.265Z,21.32
2022-11-24T01:26:03.693Z,21.29
2022-11-24T01:26:34.115Z,21.29
2022-11-24T01:27:04.556Z,21.31
2022-11-24T01:27:34.981Z,21.31
2022-11-24T01:28:05.398Z,21.31
2022-11-24T01:28:35.831Z,21.32
2022-11-24T01:29:06.258Z,21.31
2022-11-24T01:29:36.684Z,21.32
2022-11-24T01:30:07.118Z,21.31
2022-11-24T01:30:37.560Z,21.32
2022-11-24T01:31:08.000Z,21.31
2022-11-24T01:31:38.370Z,21.29
2022-11-24T01:32:08.795Z,21.29
2022-11-24T01:32:39.379Z,21.29
2022-11-24T01:33:09.802Z,21.31
2022-11-24T01:33:40.224Z,21.29
2022-11-24T01:34:10.646Z,21.29
2022-11-24T01:34:41.077Z,21.29
2022-11-24T01:35:11.500Z,21.29
2022-11-24T01:35:41.920Z,21.29
2022-11-24T01:36:12.342Z,21.28
2022-11-24T01:36:42.766Z,21.28
2022-11-24T01:37:13.186Z,21.28
2022-11-24T01:37:43.713Z,21.28
2022-11-24T01:38:14.136Z,21.29
2022-11-24T01:38:44.556Z,21.28
2022-11-24T01:39:14.985Z,21.29
2022-11-24T01:39:45.401Z,21.28
2022-11-24T01:40:15.847Z,21.28
2022-11-24T01:40:46.268Z,21.28
2022-11-24T01:41:16.695Z,21.28
2022-11-24T01:41:47.120Z,21.28
2022-11-24T01:42:17.560Z,21.27
2022-11-24T01:42:48.067Z,21.29
2022-11-24T01:43:18.486Z,21.28
2022-11-24T01:43:48.913Z,21.28
2022-11-24T01:44:19.343Z,21.27
2022-11-24T01:44:49.772Z,21.28
2022-11-24T01:45:20.205Z,21.29
2022-11-24T01:45:50.663Z,21.28
2022-11-24T01:46:21.117Z,21.29
2022-11-24T01:46:51.549Z,21.27
2022-11-24T01:47:21.968Z,21.29
2022-11-24T01:47:52.412Z,21.27
2022-11-24T01:48:27.135Z,21.29
2022-11-24T01:48:57.889Z,21.28
2022-11-24T01:49:28.314Z,21.28
2022-11-24T01:49:58.738Z,21.27
2022-11-24T01:50:29.159Z,21.27
2022-11-24T01:50:59.581Z,21.28
2022-11-24T01:51:30.002Z,21.28
2022-11-24T01:52:00.425Z,21.28
2022-11-24T01:52:30.845Z,21.28
2022-11-24T01:53:01.468Z,21.28
2022-11-24T01:53:31.901Z,21.28
2022-11-24T01:54:02.319Z,21.27
2022-11-24T01:54:33.000Z,21.28
2022-11-24T01:55:03.566Z,21.29
2022-11-24T01:55:33.991Z,21.29
2022-11-24T01:56:04.411Z,21.31
2022-11-24T01:56:34.836Z,21.29
2022-11-24T01:57:05.254Z,21.28
2022-11-24T01:57:35.697Z,21.29
2022-11-24T01:58:06.259Z,21.29
2022-11-24T01:58:36.680Z,21.29
2022-11-24T01:59:07.101Z,21.29
2022-11-24T01:59:37.529Z,21.31
2022-11-24T02:00:07.954Z,21.29
2022-11-24T02:00:38.371Z,21.29
2022-11-24T02:01:08.880Z,21.28
2022-11-24T02:01:39.448Z,21.28
2022-11-24T02:02:09.961Z,21.28
2022-11-24T02:02:40.409Z,21.29
2022-11-24T02:03:10.969Z,21.29
2022-11-24T02:03:41.386Z,21.28
2022-11-24T02:04:11.815Z,21.28
2022-11-24T02:04:42.237Z,21.29
2022-11-24T02:05:12.662Z,21.29
2022-11-24T02:05:43.085Z,21.28
2022-11-24T02:06:13.508Z,21.29
2022-11-24T02:06:43.935Z,21.29
2022-11-24T02:07:14.429Z,21.29
2022-11-24T02:07:44.936Z,21.28
2022-11-24T02:08:15.354Z,21.31
2022-11-24T02:08:45.778Z,21.29
2022-11-24T02:09:16.202Z,21.29
2022-11-24T02:09:46.621Z,21.29
2022-11-24T02:10:17.076Z,21.31
2022-11-24T02:10:47.501Z,21.28
2022-11-24T02:11:17.920Z,21.29
2022-11-24T02:11:48.343Z,21.29
2022-11-24T02:12:18.761Z,21.31
2022-11-24T02:12:49.202Z,21.29
2022-11-24T02:13:19.775Z,21.28
2022-11-24T02:13:50.203Z,21.29
2022-11-24T02:14:20.619Z,21.29
2022-11-24T02:14:51.041Z,21.28
2022-11-24T02:15:21.465Z,21.31
2022-11-24T02:15:51.922Z,21.29
2022-11-24T02:16:22.365Z,21.29
2022-11-24T02:16:52.751Z,21.29
2022-11-24T02:17:23.180Z,21.28
2022-11-24T02:17:53.599Z,21.31
2022-11-24T02:18:24.117Z,21.29
2022-11-24T02:18:54.540Z,21.29
2022-11-24T02:19:24.962Z,21.29
2022-11-24T02:20:00.276Z,21.29
2022-11-24T02:20:30.707Z,21.27
2022-11-24T02:21:01.125Z,21.29
2022-11-24T02:21:31.545Z,21.29
2022-11-24T02:22:01.980Z,21.28
2022-11-24T02:22:32.409Z,21.29
2022-11-24T02:23:02.835Z,21.29
2022-11-24T02:23:33.272Z,21.28
2022-11-24T02:24:03.696Z,21.28
2022-11-24T02:24:34.467Z,21.31
2022-11-24T02:25:04.976Z,21.28
2022-11-24T02:25:35.399Z,21.29
2022-11-24T02:26:05.822Z,21.29
2022-11-24T02:26:36.243Z,21.29
2022-11-24T02:27:06.673Z,21.29
2022-11-24T02:27:37.092Z,21.29
2022-11-24T02:28:07.537Z,21.31
2022-11-24T02:28:38.155Z,21.28
2022-11-24T02:29:08.588Z,21.31
2022-11-24T02:29:39.007Z,21.29
2022-11-24T02:30:09.430Z,21.29
2022-11-24T02:30:39.912Z,21.29
2022-11-24T02:31:10.406Z,21.27
2022-11-24T02:31:40.796Z,21.29
2022-11-24T02:32:11.219Z,21.31
2022-11-24T02:32:41.636Z,21.31
2022-11-24T02:33:12.056Z,21.29
2022-11-24T02:33:42.496Z,21.29
2022-11-24T02:34:12.928Z,21.29
2022-11-24T02:34:43.351Z,21.29
2022-11-24T02:35:13.783Z,21.29
2022-11-24T02:35:44.203Z,21.31
2022-11-24T02:36:14.626Z,21.29
2022-11-24T02:36:45.049Z,21.29
2022-11-24T02:37:15.472Z,21.28
2022-11-24T02:37:45.908Z,21.29
2022-11-24T02:38:16.345Z,21.29
2022-11-24T02:38:46.979Z,21.29
2022-11-24T02:39:17.400Z,21.29
2022-11-24T02:39:47.823Z,21.29
2022-11-24T02:40:18.244Z,21.31
2022-11-24T02:40:48.664Z,21.29
2022-11-24T02:41:19.094Z,21.29
2022-11-24T02:41:49.527Z,21.28
2022-11-24T02:42:19.944Z,21.29
2022-11-24T02:42:50.366Z,21.28
2022-11-24T02:43:20.811Z,21.28
2022-11-24T02:43:51.232Z,21.28
2022-11-24T02:44:21.657Z,21.28
2022-11-24T02:44:52.077Z,21.29
2022-11-24T02:45:22.509Z,21.28
2022-11-24T02:45:53.054Z,21.29
2022-11-24T02:46:23.489Z,21.29
2022-11-24T02:46:53.895Z,21.28
2022-11-24T02:47:24.317Z,21.28
2022-11-24T02:47:54.738Z,21.28
2022-11-24T02:48:25.157Z,21.29
2022-11-24T02:48:55.597Z,21.29
2022-11-24T02:49:26.023Z,21.31
2022-11-24T02:49:56.446Z,21.29
2022-11-24T02:50:26.867Z,21.29
2022-11-24T02:50:57.292Z,21.28
2022-11-24T02:51:27.711Z,21.29
2022-11-24T02:51:58.133Z,21.31
2022-11-24T02:52:28.554Z,21.29
2022-11-24T02:52:58.975Z,21.32
2022-11-24T02:53:29.396Z,21.29
2022-11-24T02:53:59.834Z,21.28
2022-11-24T02:54:30.260Z,21.29
2022-11-24T02:55:00.686Z,21.29
2022-11-24T02:55:31.113Z,21.29
2022-11-24T02:56:01.542Z,21.28
2022-11-24T02:56:31.969Z,21.27
2022-11-24T02:57:02.391Z,21.28
2022-11-24T02:57:32.815Z,21.27
2022-11-24T02:58:03.253Z,21.27
2022-11-24T02:58:33.697Z,21.29
2022-11-24T02:59:04.195Z,21.28
2022-11-24T02:59:34.623Z,21.27
2022-11-24T03:00:05.067Z,21.29
2022-11-24T03:00:35.469Z,21.28
2022-11-24T03:01:05.945Z,21.28
2022-11-24T03:01:36.414Z,21.28
2022-11-24T03:02:06.789Z,21.28
2022-11-24T03:02:37.277Z,21.28
2022-11-24T03:03:07.725Z,21.27
2022-11-24T03:03:38.123Z,21.28
2022-11-24T03:04:08.998Z,21.27
2022-11-24T03:04:39.424Z,21.28
2022-11-24T03:05:09.844Z,21.28
2022-11-24T03:05:40.276Z,21.28
2022-11-24T03:06:10.707Z,21.28
2022-11-24T03:06:41.127Z,21.28
2022-11-24T03:07:11.631Z,21.27
2022-11-24T03:07:42.112Z,21.28
2022-11-24T03:08:12.525Z,21.27
2022-11-24T03:08:42.960Z,21.25
2022-11-24T03:09:13.485Z,21.28
2022-11-24T03:09:43.911Z,21.25
2022-11-24T03:10:14.336Z,21.27
2022-11-24T03:10:44.755Z,21.27
2022-11-24T03:11:15.177Z,21.27
2022-11-24T03:11:45.596Z,21.24
2022-11-24T03:12:16.026Z,21.27
2022-11-24T03:12:46.461Z,21.27
2022-11-24T03:13:16.886Z,21.27
2022-11-24T03:13:47.328Z,21.28
2022-11-24T03:14:17.905Z,21.27
2022-11-24T03:14:48.328Z,21.27
2022-11-24T03:15:18.752Z,21.27
2022-11-24T03:15:49.300Z,21.25
2022-11-24T03:16:19.792Z,21.27
2022-11-24T03:16:50.170Z,21.27
2022-11-24T03:17:20.598Z,21.27
2022-11-24T03:17:51.013Z,21.27
2022-11-24T03:18:21.435Z,21.27
2022-11-24T03:18:51.855Z,21.28
2022-11-24T03:19:22.447Z,21.25
2022-11-24T03:19:52.862Z,21.27
2022-11-24T03:20:23.291Z,21.25
2022-11-24T03:20:53.711Z,21.27
2022-11-24T03:21:24.138Z,21.25
2022-11-24T03:21:54.563Z,21.25
2022-11-24T03:22:24.982Z,21.28
2022-11-24T03:22:55.403Z,21.27
2022-11-24T03:23:25.840Z,21.27
2022-11-24T03:23:56.258Z,21.27
2022-11-24T03:24:26.708Z,21.27
2022-11-24T03:24:57.130Z,21.27
2022-11-24T03:25:27.563Z,21.27
2022-11-24T03:25:57.983Z,21.27
2022-11-24T03:26:28.420Z,21.25
2022-11-24T03:26:58.839Z,21.27
2022-11-24T03:27:29.267Z,21.27
2022-11-24T03:27:59.693Z,21.27
2022-11-24T03:28:30.116Z,21.27
2022-11-24T03:29:00.559Z,21.28
2022-11-24T03:29:31.121Z,21.27
2022-11-24T03:30:01.545Z,21.28
2022-11-24T03:30:31.975Z,21.27
2022-11-24T03:31:02.429Z,21.27
2022-11-24T03:31:32.870Z,21.27
2022-11-24T03:32:03.323Z,21.27
2022-11-24T03:32:33.733Z,21.27
2022-11-24T03:33:04.158Z,21.27
2022-11-24T03:33:34.580Z,21.28
2022-11-24T03:34:05.003Z,21.28
2022-11-24T03:34:35.972Z,21.27
2022-11-24T03:35:06.477Z,21.27
2022-11-24T03:35:36.913Z,21.25
2022-11-24T03:36:07.332Z,21.28
2022-11-24T03:36:37.755Z,21.28
2022-11-24T03:37:08.176Z,21.27
2022-11-24T03:37:38.598Z,21.27
2022-11-24T03:38:09.021Z,21.27
2022-11-24T03:38:39.467Z,21.28
2022-11-24T03:39:09.884Z,21.27
2022-11-24T03:39:40.332Z,21.27
2022-11-24T03:40:10.763Z,21.27
2022-11-24T03:40:41.186Z,21.27
2022-11-24T03:41:11.622Z,21.28
2022-11-24T03:41:42.050Z,21.27
2022-11-24T03:42:12.472Z,21.27
2022-11-24T03:42:42.893Z,21.27
2022-11-24T03:43:13.323Z,21.25
2022-11-24T03:43:44.448Z,21.27
2022-11-24T03:44:14.873Z,21.27
2022-11-24T03:44:45.297Z,21.28
2022-11-24T03:45:44.706Z,21.27
2022-11-24T03:45:51.049Z,21.28
2022-11-24T03:46:21.581Z,21.27
2022-11-24T03:46:52.016Z,21.28
2022-11-24T03:47:22.431Z,21.29
2022-11-24T03:47:52.854Z,21.27
2022-11-24T03:48:23.274Z,21.25
2022-11-24T03:48:53.696Z,21.27
2022-11-24T03:49:24.125Z,21.28
2022-11-24T03:49:54.637Z,21.28
2022-11-24T03:50:25.057Z,21.28
2022-11-24T03:50:55.478Z,21.28
2022-11-24T03:51:25.903Z,21.27
2022-11-24T03:51:56.320Z,21.28
2022-11-24T03:52:26.759Z,21.25
2022-11-24T03:52:57.185Z,21.25
2022-11-24T03:53:27.608Z,21.27
2022-11-24T03:53:58.028Z,21.28
2022-11-24T03:54:28.447Z,21.25
2022-11-24T03:54:59.039Z,21.27
2022-11-24T03:55:29.464Z,21.25
2022-11-24T03:55:59.886Z,21.27
2022-11-24T03:56:30.312Z,21.27
2022-11-24T03:57:00.731Z,21.27
2022-11-24T03:57:31.163Z,21.27
2022-11-24T03:58:01.585Z,21.28
2022-11-24T03:58:32.022Z,21.28
2022-11-24T03:59:02.444Z,21.28
2022-11-24T03:59:32.891Z,21.27
2022-11-24T04:00:03.388Z,21.28
2022-11-24T04:00:33.814Z,21.27
2022-11-24T04:01:04.246Z,21.27
2022-11-24T04:01:34.719Z,21.28
2022-11-24T04:02:05.234Z,21.27
2022-11-24T04:02:35.712Z,21.27
2022-11-24T04:03:06.266Z,21.28
2022-11-24T04:03:36.666Z,21.28
2022-11-24T04:04:07.086Z,21.28
2022-11-24T04:04:37.513Z,21.28
2022-11-24T04:05:08.049Z,21.28
2022-11-24T04:05:38.478Z,21.28
2022-11-24T04:06:08.897Z,21.27
2022-11-24T04:06:39.395Z,21.27
2022-11-24T04:07:09.886Z,21.27
2022-11-24T04:07:40.356Z,21.27
2022-11-24T04:08:10.763Z,21.27
2022-11-24T04:08:41.203Z,21.28
2022-11-24T04:09:11.622Z,21.28
2022-11-24T04:09:42.047Z,21.29
2022-11-24T04:10:12.498Z,21.27
2022-11-24T04:10:42.922Z,21.27
2022-11-24T04:11:13.340Z,21.27
2022-11-24T04:11:43.772Z,21.27
2022-11-24T04:12:14.200Z,21.27
2022-11-24T04:12:44.626Z,21.27
2022-11-24T04:13:15.047Z,21.28
2022-11-24T04:13:45.474Z,21.25
2022-11-24T04:14:15.896Z,21.27
2022-11-24T04:14:46.335Z,21.27
2022-11-24T04:15:16.903Z,21.25
2022-11-24T04:15:47.399Z,21.27
2022-11-24T04:16:17.904Z,21.27
2022-11-24T04:16:48.297Z,21.27
2022-11-24T04:17:18.731Z,21.25
2022-11-24T04:17:49.149Z,21.27
2022-11-24T04:18:19.706Z,21.25
2022-11-24T04:18:50.125Z,21.27
2022-11-24T04:19:20.546Z,21.27
2022-11-24T04:19:50.970Z,21.27
2022-11-24T04:20:21.492Z,21.27
2022-11-24T04:20:51.911Z,21.27
2022-11-24T04:21:22.332Z,21.27
2022-11-24T04:21:52.761Z,21.25
2022-11-24T04:22:23.185Z,21.27
2022-11-24T04:22:53.619Z,21.27
2022-11-24T04:23:24.039Z,21.27
2022-11-24T04:23:54.462Z,21.27
2022-11-24T04:24:24.884Z,21.27
2022-11-24T04:24:55.348Z,21.25
2022-11-24T04:25:25.797Z,21.27
2022-11-24T04:25:56.224Z,21.27
2022-11-24T04:26:26.642Z,21.28
2022-11-24T04:26:57.063Z,21.27
2022-11-24T04:27:27.507Z,21.27
2022-11-24T04:27:57.921Z,21.25
2022-11-24T04:28:28.343Z,21.27
2022-11-24T04:28:58.763Z,21.27
2022-11-24T04:29:29.189Z,21.27
2022-11-24T04:29:59.635Z,21.27
2022-11-24T04:30:30.054Z,21.25
2022-11-24T04:31:00.534Z,21.25
2022-11-24T04:31:30.992Z,21.24
2022-11-24T04:32:01.419Z,21.25
2022-11-24T04:32:31.849Z,21.25
2022-11-24T04:33:02.286Z,21.25
2022-11-24T04:33:32.705Z,21.24
2022-11-24T04:34:03.132Z,21.25
2022-11-24T04:34:33.866Z,21.27
2022-11-24T04:35:04.315Z,21.24
2022-11-24T04:35:34.755Z,21.25
2022-11-24T04:36:05.306Z,21.25
2022-11-24T04:36:35.728Z,21.25
2022-11-24T04:37:06.154Z,21.24
2022-11-24T04:37:36.587Z,21.24
2022-11-24T04:38:07.009Z,21.27
2022-11-24T04:39:22.852Z,21.25
2022-11-24T04:39:24.541Z,21.25
2022-11-24T04:39:48.077Z,21.27
2022-11-24T04:40:18.523Z,21.24
2022-11-24T04:40:48.945Z,21.25
2022-11-24T04:41:19.367Z,21.25
2022-11-24T04:41:49.787Z,21.25
2022-11-24T04:42:20.235Z,21.25
2022-11-24T04:42:50.646Z,21.25
2022-11-24T04:43:21.064Z,21.24
2022-11-24T04:43:51.489Z,21.27
2022-11-24T04:44:21.910Z,21.25
2022-11-24T04:44:52.335Z,21.25
2022-11-24T04:45:22.780Z,21.27
2022-11-24T04:45:53.194Z,21.27
2022-11-24T04:46:23.710Z,21.22
2022-11-24T04:46:54.210Z,21.27
2022-11-24T04:47:24.620Z,21.27
2022-11-24T04:47:55.043Z,21.27
2022-11-24T04:48:25.465Z,21.25
2022-11-24T04:48:55.897Z,21.25
2022-11-24T04:49:26.327Z,21.27
2022-11-24T04:49:56.763Z,21.25
2022-11-24T04:50:27.183Z,21.25
2022-11-24T04:50:57.733Z,21.25
2022-11-24T04:51:28.169Z,21.27
2022-11-24T04:51:58.599Z,21.27
2022-11-24T04:52:29.032Z,21.27
2022-11-24T04:52:59.455Z,21.27
2022-11-24T04:53:29.877Z,21.25
2022-11-24T04:54:00.298Z,21.25
2022-11-24T04:54:30.805Z,21.27
2022-11-24T04:55:01.233Z,21.25
2022-11-24T04:55:31.655Z,21.27
2022-11-24T04:56:02.175Z,21.27
2022-11-24T04:56:32.605Z,21.28
2022-11-24T04:57:03.040Z,21.28
2022-11-24T04:57:33.473Z,21.25
2022-11-24T04:58:03.895Z,21.25
2022-11-24T04:58:34.327Z,21.25
2022-11-24T04:59:08.170Z,21.27
2022-11-24T04:59:38.895Z,21.27
2022-11-24T05:00:09.343Z,21.27
2022-11-24T05:00:39.777Z,21.25
2022-11-24T05:01:10.297Z,21.24
2022-11-24T05:01:40.847Z,21.25
2022-11-24T05:02:11.302Z,21.27
2022-11-24T05:02:41.712Z,21.24
2022-11-24T05:03:12.132Z,21.24
2022-11-24T05:03:42.555Z,21.25
2022-11-24T05:04:13.041Z,21.25
2022-11-24T05:04:43.529Z,21.27
2022-11-24T05:05:13.923Z,21.25
2022-11-24T05:05:44.354Z,21.25
2022-11-24T05:06:14.817Z,21.27
2022-11-24T05:06:45.238Z,21.25
2022-11-24T05:07:18.772Z,21.24
2022-11-24T05:07:49.813Z,21.25
2022-11-24T05:08:20.201Z,21.25
2022-11-24T05:08:50.648Z,21.25
2022-11-24T05:09:21.062Z,21.24
2022-11-24T05:09:59.306Z,21.24
2022-11-24T05:10:26.805Z,21.24
2022-11-24T05:10:57.228Z,21.25
2022-11-24T05:11:27.748Z,21.24
2022-11-24T05:11:58.168Z,21.27
2022-11-24T05:12:28.592Z,21.27
2022-11-24T05:12:59.030Z,21.27
2022-11-24T05:13:29.455Z,21.25
2022-11-24T05:13:59.886Z,21.28
2022-11-24T05:14:30.306Z,21.27
2022-11-24T05:15:00.736Z,21.27
2022-11-24T05:15:31.148Z,21.27
2022-11-24T05:16:01.754Z,21.25
2022-11-24T05:16:32.369Z,21.25
2022-11-24T05:17:02.798Z,21.25
2022-11-24T05:17:33.218Z,21.27
2022-11-24T05:18:03.653Z,21.25
2022-11-24T05:18:34.076Z,21.24
2022-11-24T05:19:04.496Z,21.27
2022-11-24T05:19:34.949Z,21.25
2022-11-24T05:20:05.371Z,21.27
2022-11-24T05:20:35.794Z,21.25
2022-11-24T05:21:06.211Z,21.25
2022-11-24T05:21:36.730Z,21.25
2022-11-24T05:22:07.151Z,21.27
2022-11-24T05:22:37.573Z,21.27
2022-11-24T05:23:08.008Z,21.25
2022-11-24T05:23:38.430Z,21.25
2022-11-24T05:24:08.863Z,21.25
2022-11-24T05:24:39.281Z,21.27
2022-11-24T05:25:09.708Z,21.25
2022-11-24T05:25:44.884Z,21.24
2022-11-24T05:26:15.449Z,21.25
2022-11-24T05:26:45.895Z,21.25
2022-11-24T05:27:16.321Z,21.27
2022-11-24T05:27:46.737Z,21.24
2022-11-24T05:28:17.160Z,21.25
2022-11-24T05:28:47.581Z,21.25
2022-11-24T05:29:18.009Z,21.27
2022-11-24T05:29:48.429Z,21.27
2022-11-24T05:30:18.853Z,21.27
2022-11-24T05:30:49.271Z,21.25
2022-11-24T05:31:19.764Z,21.27
2022-11-24T05:31:50.270Z,21.28
2022-11-24T05:32:20.691Z,21.25
2022-11-24T05:32:51.122Z,21.27
2022-11-24T05:33:21.544Z,21.24
2022-11-24T05:33:51.976Z,21.28
2022-11-24T05:34:22.415Z,21.25
2022-11-24T05:34:52.834Z,21.27
2022-11-24T05:35:23.257Z,21.25
2022-11-24T05:35:53.683Z,21.25
2022-11-24T05:36:24.107Z,21.28
2022-11-24T05:36:54.760Z,21.25
2022-11-24T05:37:25.172Z,21.27
2022-11-24T05:37:55.595Z,21.27
2022-11-24T05:38:26.033Z,21.27
2022-11-24T05:38:56.448Z,21.27
2022-11-24T05:39:26.869Z,21.27
2022-11-24T05:39:57.296Z,21.25
2022-11-24T05:40:27.720Z,21.25
2022-11-24T05:40:58.140Z,21.27
2022-11-24T05:41:28.567Z,21.27
2022-11-24T05:41:59.087Z,21.25
2022-11-24T05:42:29.506Z,21.25
2022-11-24T05:42:59.930Z,21.25
2022-11-24T05:43:30.359Z,21.27
2022-11-24T05:44:00.789Z,21.27
2022-11-24T05:44:31.325Z,21.24
2022-11-24T05:45:01.788Z,21.25
2022-11-24T05:45:32.220Z,21.24
2022-11-24T05:46:02.637Z,21.24
2022-11-24T05:46:33.155Z,21.24
2022-11-24T05:47:03.630Z,21.24
2022-11-24T05:47:34.030Z,21.25
2022-11-24T05:48:04.449Z,21.24
2022-11-24T05:48:34.903Z,21.24
2022-11-24T05:49:05.324Z,21.27
2022-11-24T05:49:35.750Z,21.25
2022-11-24T05:50:06.172Z,21.27
2022-11-24T05:50:36.596Z,21.27
2022-11-24T05:51:09.464Z,21.25
2022-11-24T05:51:39.979Z,21.25
2022-11-24T05:52:10.505Z,21.25
2022-11-24T05:52:40.931Z,21.27
2022-11-24T05:53:11.365Z,21.27
2022-11-24T05:53:41.793Z,21.24
2022-11-24T05:54:12.213Z,21.25
2022-11-24T05:54:42.640Z,21.22
2022-11-24T05:55:13.061Z,21.25
2022-11-24T05:55:43.485Z,21.24
2022-11-24T05:56:13.905Z,21.25
2022-11-24T05:56:44.328Z,21.25
2022-11-24T05:57:14.787Z,21.24
2022-11-24T05:57:45.217Z,21.24
2022-11-24T05:58:15.647Z,21.24
2022-11-24T05:58:46.068Z,21.25
2022-11-24T05:59:16.488Z,21.25
2022-11-24T05:59:46.918Z,21.25
2022-11-24T06:00:17.333Z,21.27
2022-11-24T06:00:47.755Z,21.27
2022-11-24T06:01:18.188Z,21.25
2022-11-24T06:01:48.826Z,21.27
2022-11-24T06:02:19.461Z,21.25
2022-11-24T06:02:50.052Z,21.25
2022-11-24T06:03:20.564Z,21.25
2022-11-24T06:03:50.988Z,21.25
2022-11-24T06:04:21.407Z,21.25
2022-11-24T06:04:51.831Z,21.25
2022-11-24T06:05:22.249Z,21.24
2022-11-24T06:05:52.672Z,21.25
2022-11-24T06:06:23.106Z,21.27
2022-11-24T06:06:53.543Z,21.25
2022-11-24T06:07:24.117Z,21.25
2022-11-24T06:07:54.576Z,21.25
2022-11-24T06:08:30.696Z,21.25
2022-11-24T06:09:00.267Z,21.25
2022-11-24T06:09:30.681Z,21.25
2022-11-24T06:10:01.101Z,21.25
2022-11-24T06:10:31.523Z,21.24
2022-11-24T06:11:01.945Z,21.25
2022-11-24T06:11:32.368Z,21.24
2022-11-24T06:12:02.789Z,21.27
2022-11-24T06:12:33.238Z,21.25
2022-11-24T06:13:03.685Z,21.25
2022-11-24T06:13:34.138Z,21.27
2022-11-24T06:14:10.786Z,21.25
2022-11-24T06:14:40.119Z,21.25
2022-11-24T06:15:10.541Z,21.25
2022-11-24T06:15:40.964Z,21.25
2022-11-24T06:16:11.440Z,21.27
2022-11-24T06:16:41.903Z,21.25
2022-11-24T06:17:12.320Z,21.25
2022-11-24T06:17:42.735Z,21.25
2022-11-24T06:18:13.155Z,21.24
2022-11-24T06:18:43.578Z,21.24
2022-11-24T06:19:14.004Z,21.25
2022-11-24T06:19:44.433Z,21.24
2022-11-24T06:20:14.854Z,21.25
2022-11-24T06:20:57.619Z,21.25
2022-11-24T06:21:20.603Z,21.25
2022-11-24T06:21:51.026Z,21.25
2022-11-24T06:22:21.447Z,21.24
2022-11-24T06:22:51.890Z,21.24
2022-11-24T06:23:22.314Z,21.24
2022-11-24T06:23:52.735Z,21.24
2022-11-24T06:24:23.163Z,21.25
2022-11-24T06:24:53.607Z,21.25
2022-11-24T06:25:24.034Z,21.25
2022-11-24T06:25:54.457Z,21.25
2022-11-24T06:26:24.879Z,21.25
2022-11-24T06:26:55.304Z,21.25
2022-11-24T06:27:25.723Z,21.24
2022-11-24T06:27:56.364Z,21.25
2022-11-24T06:28:26.785Z,21.25
2022-11-24T06:28:57.243Z,21.25
2022-11-24T06:29:27.648Z,21.24
2022-11-24T06:29:58.072Z,21.24
2022-11-24T06:30:28.491Z,21.25
2022-11-24T06:30:58.918Z,21.25
2022-11-24T06:31:29.378Z,21.24
2022-11-24T06:31:59.908Z,21.27
2022-11-24T06:32:30.426Z,21.24
2022-11-24T06:33:00.833Z,21.24